sensor_id;sensor_type;location;lat;lon;timestamp;pressure;altitude;pressure_sealevel;temperature
62930;BMP280;49036;42.782;23.108;2023-07-31T00:00:06;93754.75;;;16.84
62930;BMP280;49036;42.782;23.108;2023-07-31T00:02:31;93763.94;;;16.86
62930;BMP280;49036;42.782;23.108;2023-07-31T00:04:58;93761.22;;;16.88
62930;BMP280;49036;42.782;23.108;2023-07-31T00:09:14;93762.50;;;16.85
62930;BMP280;49036;42.782;23.108;2023-07-31T00:11:40;93758.97;;;16.85
62930;BMP280;49036;42.782;23.108;2023-07-31T00:14:05;93749.78;;;16.82
62930;BMP280;49036;42.782;23.108;2023-07-31T00:16:31;93746.91;;;16.80
62930;BMP280;49036;42.782;23.108;2023-07-31T00:20:39;93735.44;;;16.74
62930;BMP280;49036;42.782;23.108;2023-07-31T00:23:05;93735.34;;;16.72
62930;BMP280;49036;42.782;23.108;2023-07-31T00:25:30;93731.84;;;16.72
62930;BMP280;49036;42.782;23.108;2023-07-31T00:27:56;93725.34;;;16.67
62930;BMP280;49036;42.782;23.108;2023-07-31T00:30:21;93720.28;;;16.63
62930;BMP280;49036;42.782;23.108;2023-07-31T00:32:47;93721.09;;;16.66
62930;BMP280;49036;42.782;23.108;2023-07-31T00:35:13;93715.41;;;16.64
62930;BMP280;49036;42.782;23.108;2023-07-31T00:37:39;93716.72;;;16.61
62930;BMP280;49036;42.782;23.108;2023-07-31T00:40:05;93705.38;;;16.59
62930;BMP280;49036;42.782;23.108;2023-07-31T00:42:31;93712.28;;;16.56
62930;BMP280;49036;42.782;23.108;2023-07-31T00:44:56;93715.25;;;16.60
62930;BMP280;49036;42.782;23.108;2023-07-31T00:47:22;93707.00;;;16.64
62930;BMP280;49036;42.782;23.108;2023-07-31T00:49:48;93712.13;;;16.70
62930;BMP280;49036;42.782;23.108;2023-07-31T00:52:13;93703.25;;;16.75
62930;BMP280;49036;42.782;23.108;2023-07-31T00:54:39;93709.88;;;16.84
62930;BMP280;49036;42.782;23.108;2023-07-31T00:57:05;93710.78;;;16.88
62930;BMP280;49036;42.782;23.108;2023-07-31T00:59:32;93706.78;;;16.93
62930;BMP280;49036;42.782;23.108;2023-07-31T01:03:43;93709.72;;;16.97
62930;BMP280;49036;42.782;23.108;2023-07-31T01:06:19;93701.47;;;17.01
62930;BMP280;49036;42.782;23.108;2023-07-31T01:08:56;93696.66;;;17.04
62930;BMP280;49036;42.782;23.108;2023-07-31T01:11:28;93695.31;;;17.05
62930;BMP280;49036;42.782;23.108;2023-07-31T01:15:12;93701.00;;;17.07
62930;BMP280;49036;42.782;23.108;2023-07-31T01:17:41;93692.41;;;17.03
62930;BMP280;49036;42.782;23.108;2023-07-31T01:20:22;93692.19;;;16.97
62930;BMP280;49036;42.782;23.108;2023-07-31T01:28:37;93678.09;;;16.95
62930;BMP280;49036;42.782;23.108;2023-07-31T01:32:28;93670.56;;;16.99
62930;BMP280;49036;42.782;23.108;2023-07-31T01:34:55;93681.13;;;17.01
62930;BMP280;49036;42.782;23.108;2023-07-31T01:37:39;93679.75;;;17.02
62930;BMP280;49036;42.782;23.108;2023-07-31T01:40:07;93686.09;;;17.02
62930;BMP280;49036;42.782;23.108;2023-07-31T01:42:32;93687.63;;;17.06
62930;BMP280;49036;42.782;23.108;2023-07-31T01:44:58;93690.41;;;17.06
62930;BMP280;49036;42.782;23.108;2023-07-31T01:47:23;93682.88;;;17.10
62930;BMP280;49036;42.782;23.108;2023-07-31T01:49:49;93670.94;;;17.10
62930;BMP280;49036;42.782;23.108;2023-07-31T01:52:15;93677.34;;;17.12
62930;BMP280;49036;42.782;23.108;2023-07-31T01:54:40;93681.59;;;17.13
62930;BMP280;49036;42.782;23.108;2023-07-31T01:57:06;93681.84;;;17.19
62930;BMP280;49036;42.782;23.108;2023-07-31T01:59:32;93682.47;;;17.18
62930;BMP280;49036;42.782;23.108;2023-07-31T02:01:57;93685.44;;;17.22
62930;BMP280;49036;42.782;23.108;2023-07-31T02:04:23;93683.34;;;17.22
62930;BMP280;49036;42.782;23.108;2023-07-31T02:06:48;93686.78;;;17.21
62930;BMP280;49036;42.782;23.108;2023-07-31T02:09:14;93684.53;;;17.17
62930;BMP280;49036;42.782;23.108;2023-07-31T02:11:39;93690.25;;;17.19
62930;BMP280;49036;42.782;23.108;2023-07-31T02:14:05;93689.59;;;17.21
62930;BMP280;49036;42.782;23.108;2023-07-31T02:16:31;93694.47;;;17.20
62930;BMP280;49036;42.782;23.108;2023-07-31T02:18:56;93691.66;;;17.20
62930;BMP280;49036;42.782;23.108;2023-07-31T02:21:22;93696.06;;;17.25
62930;BMP280;49036;42.782;23.108;2023-07-31T02:23:47;93698.97;;;17.27
62930;BMP280;49036;42.782;23.108;2023-07-31T02:26:13;93695.28;;;17.23
62930;BMP280;49036;42.782;23.108;2023-07-31T02:29:19;93702.41;;;17.26
62930;BMP280;49036;42.782;23.108;2023-07-31T02:31:45;93694.72;;;17.26
62930;BMP280;49036;42.782;23.108;2023-07-31T02:34:11;93695.69;;;17.33
62930;BMP280;49036;42.782;23.108;2023-07-31T02:36:36;93695.81;;;17.37
62930;BMP280;49036;42.782;23.108;2023-07-31T02:39:02;93704.94;;;17.38
62930;BMP280;49036;42.782;23.108;2023-07-31T02:41:27;93705.03;;;17.40
62930;BMP280;49036;42.782;23.108;2023-07-31T02:43:53;93702.00;;;17.33
62930;BMP280;49036;42.782;23.108;2023-07-31T02:46:19;93703.22;;;17.28
62930;BMP280;49036;42.782;23.108;2023-07-31T02:48:45;93705.28;;;17.28
62930;BMP280;49036;42.782;23.108;2023-07-31T02:53:09;93702.69;;;17.14
62930;BMP280;49036;42.782;23.108;2023-07-31T02:55:35;93706.91;;;17.15
62930;BMP280;49036;42.782;23.108;2023-07-31T02:58:00;93705.69;;;17.20
62930;BMP280;49036;42.782;23.108;2023-07-31T03:00:26;93712.25;;;17.27
62930;BMP280;49036;42.782;23.108;2023-07-31T03:02:51;93709.59;;;17.31
62930;BMP280;49036;42.782;23.108;2023-07-31T03:06:17;93706.75;;;17.29
62930;BMP280;49036;42.782;23.108;2023-07-31T03:08:42;93712.78;;;17.41
62930;BMP280;49036;42.782;23.108;2023-07-31T03:11:22;93706.91;;;17.33
62930;BMP280;49036;42.782;23.108;2023-07-31T03:13:47;93706.75;;;17.29
62930;BMP280;49036;42.782;23.108;2023-07-31T03:16:13;93707.13;;;17.21
62930;BMP280;49036;42.782;23.108;2023-07-31T03:20:29;93699.72;;;17.10
62930;BMP280;49036;42.782;23.108;2023-07-31T03:22:54;93707.97;;;17.06
62930;BMP280;49036;42.782;23.108;2023-07-31T03:25:20;93713.41;;;17.02
62930;BMP280;49036;42.782;23.108;2023-07-31T03:27:46;93713.41;;;17.02
62930;BMP280;49036;42.782;23.108;2023-07-31T03:30:11;93713.41;;;17.02
62930;BMP280;49036;42.782;23.108;2023-07-31T03:32:37;93719.91;;;17.07
62930;BMP280;49036;42.782;23.108;2023-07-31T03:35:03;93720.03;;;17.11
62930;BMP280;49036;42.782;23.108;2023-07-31T03:37:28;93724.41;;;17.14
62930;BMP280;49036;42.782;23.108;2023-07-31T03:41:47;93726.72;;;17.19
62930;BMP280;49036;42.782;23.108;2023-07-31T03:44:13;93723.91;;;17.19
62930;BMP280;49036;42.782;23.108;2023-07-31T03:46:38;93734.47;;;17.21
62930;BMP280;49036;42.782;23.108;2023-07-31T03:49:28;93738.88;;;17.26
62930;BMP280;49036;42.782;23.108;2023-07-31T03:51:54;93743.19;;;17.29
62930;BMP280;49036;42.782;23.108;2023-07-31T03:54:19;93740.13;;;17.41
62930;BMP280;49036;42.782;23.108;2023-07-31T03:56:45;93738.03;;;17.41
62930;BMP280;49036;42.782;23.108;2023-07-31T03:59:11;93739.06;;;17.50
62930;BMP280;49036;42.782;23.108;2023-07-31T04:01:36;93739.28;;;17.56
62930;BMP280;49036;42.782;23.108;2023-07-31T04:04:02;93732.53;;;17.63
62930;BMP280;49036;42.782;23.108;2023-07-31T04:06:27;93724.34;;;17.69
62930;BMP280;49036;42.782;23.108;2023-07-31T04:08:53;93739.88;;;17.72
62930;BMP280;49036;42.782;23.108;2023-07-31T04:11:19;93732.53;;;17.83
62930;BMP280;49036;42.782;23.108;2023-07-31T04:13:44;93739.63;;;17.84
62930;BMP280;49036;42.782;23.108;2023-07-31T04:16:10;93757.31;;;17.88
62930;BMP280;49036;42.782;23.108;2023-07-31T04:18:35;93750.41;;;17.91
62930;BMP280;49036;42.782;23.108;2023-07-31T04:21:01;93749.81;;;17.95
62930;BMP280;49036;42.782;23.108;2023-07-31T04:24:25;93747.84;;;17.97
62930;BMP280;49036;42.782;23.108;2023-07-31T04:26:52;93751.84;;;17.92
62930;BMP280;49036;42.782;23.108;2023-07-31T04:29:17;93737.75;;;17.90
62930;BMP280;49036;42.782;23.108;2023-07-31T04:31:43;93747.56;;;17.89
62930;BMP280;49036;42.782;23.108;2023-07-31T04:34:09;93748.41;;;17.94
62930;BMP280;49036;42.782;23.108;2023-07-31T04:36:34;93746.25;;;17.92
62930;BMP280;49036;42.782;23.108;2023-07-31T04:39:01;93751.28;;;17.96
62930;BMP280;49036;42.782;23.108;2023-07-31T04:43:25;93748.50;;;18.37
62930;BMP280;49036;42.782;23.108;2023-07-31T04:45:51;93748.63;;;18.61
62930;BMP280;49036;42.782;23.108;2023-07-31T04:48:19;93737.38;;;18.83
62930;BMP280;49036;42.782;23.108;2023-07-31T04:50:44;93738.78;;;19.06
62930;BMP280;49036;42.782;23.108;2023-07-31T04:53:10;93738.09;;;19.29
62930;BMP280;49036;42.782;23.108;2023-07-31T04:55:36;93739.03;;;19.62
62930;BMP280;49036;42.782;23.108;2023-07-31T04:58:01;93742.00;;;19.92
62930;BMP280;49036;42.782;23.108;2023-07-31T05:01:49;93742.78;;;20.20
62930;BMP280;49036;42.782;23.108;2023-07-31T05:04:15;93748.22;;;20.40
62930;BMP280;49036;42.782;23.108;2023-07-31T05:06:41;93740.34;;;20.36
62930;BMP280;49036;42.782;23.108;2023-07-31T05:09:07;93742.78;;;20.48
62930;BMP280;49036;42.782;23.108;2023-07-31T05:11:34;93731.28;;;20.40
62930;BMP280;49036;42.782;23.108;2023-07-31T05:14:00;93733.69;;;20.51
62930;BMP280;49036;42.782;23.108;2023-07-31T05:16:26;93727.44;;;20.55
62930;BMP280;49036;42.782;23.108;2023-07-31T05:18:51;93739.50;;;20.87
62930;BMP280;49036;42.782;23.108;2023-07-31T05:21:17;93747.22;;;20.85
62930;BMP280;49036;42.782;23.108;2023-07-31T05:23:43;93745.25;;;20.91
62930;BMP280;49036;42.782;23.108;2023-07-31T05:26:08;93739.66;;;20.93
62930;BMP280;49036;42.782;23.108;2023-07-31T05:28:37;93741.97;;;21.33
62930;BMP280;49036;42.782;23.108;2023-07-31T05:31:04;93746.34;;;21.40
62930;BMP280;49036;42.782;23.108;2023-07-31T05:34:32;93742.88;;;21.78
62930;BMP280;49036;42.782;23.108;2023-07-31T05:36:58;93742.03;;;21.71
62930;BMP280;49036;42.782;23.108;2023-07-31T05:39:23;93730.06;;;21.39
62930;BMP280;49036;42.782;23.108;2023-07-31T05:41:49;93741.34;;;21.07
62930;BMP280;49036;42.782;23.108;2023-07-31T05:44:15;93738.03;;;20.84
62930;BMP280;49036;42.782;23.108;2023-07-31T05:47:34;93739.28;;;20.21
62930;BMP280;49036;42.782;23.108;2023-07-31T05:50:01;93742.13;;;20.23
62930;BMP280;49036;42.782;23.108;2023-07-31T05:52:26;93741.59;;;20.29
62930;BMP280;49036;42.782;23.108;2023-07-31T05:54:54;93745.28;;;20.36
62930;BMP280;49036;42.782;23.108;2023-07-31T05:57:20;93745.38;;;20.68
62930;BMP280;49036;42.782;23.108;2023-07-31T05:59:45;93739.81;;;20.42
62930;BMP280;49036;42.782;23.108;2023-07-31T06:02:11;93742.63;;;20.14
62930;BMP280;49036;42.782;23.108;2023-07-31T06:04:36;93754.13;;;19.98
62930;BMP280;49036;42.782;23.108;2023-07-31T06:07:03;93759.56;;;19.90
62930;BMP280;49036;42.782;23.108;2023-07-31T06:09:29;93749.81;;;19.69
62930;BMP280;49036;42.782;23.108;2023-07-31T06:11:54;93751.75;;;19.63
62930;BMP280;49036;42.782;23.108;2023-07-31T06:15:00;93768.28;;;19.51
62930;BMP280;49036;42.782;23.108;2023-07-31T06:17:26;93772.09;;;19.85
62930;BMP280;49036;42.782;23.108;2023-07-31T06:20:12;93764.75;;;20.00
62930;BMP280;49036;42.782;23.108;2023-07-31T06:22:38;93770.19;;;20.45
62930;BMP280;49036;42.782;23.108;2023-07-31T06:25:04;93756.81;;;21.04
62930;BMP280;49036;42.782;23.108;2023-07-31T06:27:30;93766.81;;;21.41
62930;BMP280;49036;42.782;23.108;2023-07-31T06:29:56;93775.56;;;21.53
62930;BMP280;49036;42.782;23.108;2023-07-31T06:32:22;93774.69;;;21.46
62930;BMP280;49036;42.782;23.108;2023-07-31T06:34:47;93764.81;;;21.79
62930;BMP280;49036;42.782;23.108;2023-07-31T06:37:13;93760.66;;;21.84
62930;BMP280;49036;42.782;23.108;2023-07-31T06:39:38;93763.66;;;21.58
62930;BMP280;49036;42.782;23.108;2023-07-31T06:42:04;93767.53;;;21.41
62930;BMP280;49036;42.782;23.108;2023-07-31T06:45:26;93765.03;;;21.55
62930;BMP280;49036;42.782;23.108;2023-07-31T06:47:52;93771.44;;;21.26
62930;BMP280;49036;42.782;23.108;2023-07-31T06:50:17;93769.41;;;20.99
62930;BMP280;49036;42.782;23.108;2023-07-31T06:52:43;93754.91;;;21.12
62930;BMP280;49036;42.782;23.108;2023-07-31T06:55:20;93747.84;;;20.83
62930;BMP280;49036;42.782;23.108;2023-07-31T06:57:49;93750.22;;;20.93
62930;BMP280;49036;42.782;23.108;2023-07-31T07:00:15;93761.22;;;20.81
62930;BMP280;49036;42.782;23.108;2023-07-31T07:02:41;93745.72;;;20.82
62930;BMP280;49036;42.782;23.108;2023-07-31T07:05:07;93747.59;;;21.01
62930;BMP280;49036;42.782;23.108;2023-07-31T07:07:34;93751.34;;;21.12
62930;BMP280;49036;42.782;23.108;2023-07-31T07:09:59;93768.28;;;21.10
62930;BMP280;49036;42.782;23.108;2023-07-31T07:12:27;93746.44;;;21.12
62930;BMP280;49036;42.782;23.108;2023-07-31T07:14:53;93748.63;;;21.16
62930;BMP280;49036;42.782;23.108;2023-07-31T07:17:19;93757.72;;;21.12
62930;BMP280;49036;42.782;23.108;2023-07-31T07:19:45;93758.84;;;21.31
62930;BMP280;49036;42.782;23.108;2023-07-31T07:22:11;93771.22;;;21.48
62930;BMP280;49036;42.782;23.108;2023-07-31T07:24:37;93752.28;;;21.54
62930;BMP280;49036;42.782;23.108;2023-07-31T07:27:03;93762.69;;;21.46
62930;BMP280;49036;42.782;23.108;2023-07-31T07:29:30;93763.09;;;21.64
62930;BMP280;49036;42.782;23.108;2023-07-31T07:32:44;93769.22;;;21.88
62930;BMP280;49036;42.782;23.108;2023-07-31T07:35:09;93766.22;;;22.16
62930;BMP280;49036;42.782;23.108;2023-07-31T07:37:35;93764.78;;;22.13
62930;BMP280;49036;42.782;23.108;2023-07-31T07:40:00;93759.66;;;22.05
62930;BMP280;49036;42.782;23.108;2023-07-31T07:42:26;93765.72;;;22.26
62930;BMP280;49036;42.782;23.108;2023-07-31T07:44:52;93771.50;;;22.32
62930;BMP280;49036;42.782;23.108;2023-07-31T07:47:17;93775.53;;;22.21
62930;BMP280;49036;42.782;23.108;2023-07-31T07:49:43;93773.81;;;22.05
62930;BMP280;49036;42.782;23.108;2023-07-31T07:52:31;93768.25;;;22.10
62930;BMP280;49036;42.782;23.108;2023-07-31T07:55:08;93768.00;;;22.35
62930;BMP280;49036;42.782;23.108;2023-07-31T07:57:34;93765.19;;;22.37
62930;BMP280;49036;42.782;23.108;2023-07-31T07:59:59;93766.59;;;22.36
62930;BMP280;49036;42.782;23.108;2023-07-31T08:02:46;93766.78;;;22.47
62930;BMP280;49036;42.782;23.108;2023-07-31T08:05:12;93768.13;;;22.43
62930;BMP280;49036;42.782;23.108;2023-07-31T08:07:38;93768.25;;;22.50
62930;BMP280;49036;42.782;23.108;2023-07-31T08:10:04;93777.31;;;22.44
62930;BMP280;49036;42.782;23.108;2023-07-31T08:12:30;93769.28;;;22.68
62930;BMP280;49036;42.782;23.108;2023-07-31T08:14:55;93775.25;;;22.87
62930;BMP280;49036;42.782;23.108;2023-07-31T08:17:21;93775.13;;;22.80
62930;BMP280;49036;42.782;23.108;2023-07-31T08:19:46;93775.91;;;22.85
62930;BMP280;49036;42.782;23.108;2023-07-31T08:22:12;93763.69;;;23.20
62930;BMP280;49036;42.782;23.108;2023-07-31T08:24:38;93766.19;;;23.46
62930;BMP280;49036;42.782;23.108;2023-07-31T08:27:05;93771.22;;;23.52
62930;BMP280;49036;42.782;23.108;2023-07-31T08:29:31;93781.09;;;23.49
62930;BMP280;49036;42.782;23.108;2023-07-31T08:32:49;93766.97;;;23.51
62930;BMP280;49036;42.782;23.108;2023-07-31T08:35:14;93775.72;;;23.71
62930;BMP280;49036;42.782;23.108;2023-07-31T08:37:40;93767.75;;;23.57
62930;BMP280;49036;42.782;23.108;2023-07-31T08:40:06;93770.00;;;23.67
62930;BMP280;49036;42.782;23.108;2023-07-31T08:42:32;93774.50;;;23.88
62930;BMP280;49036;42.782;23.108;2023-07-31T08:44:59;93758.53;;;23.59
62930;BMP280;49036;42.782;23.108;2023-07-31T08:47:25;93773.72;;;23.82
62930;BMP280;49036;42.782;23.108;2023-07-31T08:49:51;93760.63;;;24.17
62930;BMP280;49036;42.782;23.108;2023-07-31T08:52:18;93762.88;;;24.26
62930;BMP280;49036;42.782;23.108;2023-07-31T08:54:43;93762.25;;;24.38
62930;BMP280;49036;42.782;23.108;2023-07-31T08:57:10;93765.00;;;24.24
62930;BMP280;49036;42.782;23.108;2023-07-31T08:59:36;93763.75;;;24.45
62930;BMP280;49036;42.782;23.108;2023-07-31T09:02:06;93756.84;;;24.64
62930;BMP280;49036;42.782;23.108;2023-07-31T09:04:33;93755.75;;;25.10
62930;BMP280;49036;42.782;23.108;2023-07-31T09:07:03;93755.63;;;24.94
62930;BMP280;49036;42.782;23.108;2023-07-31T09:09:33;93754.28;;;25.03
62930;BMP280;49036;42.782;23.108;2023-07-31T09:11:59;93755.88;;;25.38
62930;BMP280;49036;42.782;23.108;2023-07-31T09:14:25;93757.56;;;25.92
62930;BMP280;49036;42.782;23.108;2023-07-31T09:16:55;93752.50;;;25.72
62930;BMP280;49036;42.782;23.108;2023-07-31T09:19:35;93757.38;;;25.47
62930;BMP280;49036;42.782;23.108;2023-07-31T09:22:07;93743.22;;;25.53
62930;BMP280;49036;42.782;23.108;2023-07-31T09:24:34;93752.34;;;25.34
62930;BMP280;49036;42.782;23.108;2023-07-31T09:27:01;93751.59;;;25.29
62930;BMP280;49036;42.782;23.108;2023-07-31T09:29:28;93745.47;;;25.99
62930;BMP280;49036;42.782;23.108;2023-07-31T09:31:55;93749.09;;;26.57
62930;BMP280;49036;42.782;23.108;2023-07-31T09:34:29;93742.63;;;27.19
62930;BMP280;49036;42.782;23.108;2023-07-31T09:36:58;93753.91;;;27.64
62930;BMP280;49036;42.782;23.108;2023-07-31T09:39:26;93746.09;;;27.46
62930;BMP280;49036;42.782;23.108;2023-07-31T09:41:56;93745.38;;;27.43
62930;BMP280;49036;42.782;23.108;2023-07-31T09:44:37;93757.22;;;28.04
62930;BMP280;49036;42.782;23.108;2023-07-31T09:47:04;93754.81;;;26.93
62930;BMP280;49036;42.782;23.108;2023-07-31T09:49:29;93744.84;;;26.76
62930;BMP280;49036;42.782;23.108;2023-07-31T09:51:55;93754.06;;;26.34
62930;BMP280;49036;42.782;23.108;2023-07-31T09:54:20;93744.63;;;25.52
62930;BMP280;49036;42.782;23.108;2023-07-31T09:56:47;93744.66;;;25.71
62930;BMP280;49036;42.782;23.108;2023-07-31T09:59:16;93742.00;;;26.42
62930;BMP280;49036;42.782;23.108;2023-07-31T10:01:42;93741.22;;;27.04
62930;BMP280;49036;42.782;23.108;2023-07-31T10:04:10;93744.75;;;27.23
62930;BMP280;49036;42.782;23.108;2023-07-31T10:06:37;93744.75;;;27.18
62930;BMP280;49036;42.782;23.108;2023-07-31T10:10:43;93730.56;;;27.02
62930;BMP280;49036;42.782;23.108;2023-07-31T10:13:10;93731.81;;;27.52
62930;BMP280;49036;42.782;23.108;2023-07-31T10:15:36;93729.34;;;28.17
62930;BMP280;49036;42.782;23.108;2023-07-31T10:18:02;93736.00;;;27.71
62930;BMP280;49036;42.782;23.108;2023-07-31T10:21:50;93745.34;;;27.49
62930;BMP280;49036;42.782;23.108;2023-07-31T10:24:16;93727.53;;;27.63
62930;BMP280;49036;42.782;23.108;2023-07-31T10:26:45;93726.00;;;27.78
62930;BMP280;49036;42.782;23.108;2023-07-31T10:29:12;93728.78;;;27.86
62930;BMP280;49036;42.782;23.108;2023-07-31T10:31:38;93724.63;;;27.65
62930;BMP280;49036;42.782;23.108;2023-07-31T10:34:05;93717.72;;;27.11
62930;BMP280;49036;42.782;23.108;2023-07-31T10:36:31;93718.44;;;26.98
62930;BMP280;49036;42.782;23.108;2023-07-31T10:38:56;93716.97;;;27.25
62930;BMP280;49036;42.782;23.108;2023-07-31T10:41:29;93719.34;;;28.12
62930;BMP280;49036;42.782;23.108;2023-07-31T10:44:00;93708.53;;;29.06
62930;BMP280;49036;42.782;23.108;2023-07-31T10:46:28;93712.91;;;29.58
62930;BMP280;49036;42.782;23.108;2023-07-31T10:49:03;93715.63;;;28.36
62930;BMP280;49036;42.782;23.108;2023-07-31T10:51:35;93708.66;;;28.15
62930;BMP280;49036;42.782;23.108;2023-07-31T10:54:15;93721.78;;;27.65
62930;BMP280;49036;42.782;23.108;2023-07-31T10:57:00;93716.44;;;29.02
62930;BMP280;49036;42.782;23.108;2023-07-31T10:59:27;93738.06;;;27.87
62930;BMP280;49036;42.782;23.108;2023-07-31T11:01:55;93719.03;;;28.55
62930;BMP280;49036;42.782;23.108;2023-07-31T11:04:27;93711.94;;;29.21
62930;BMP280;49036;42.782;23.108;2023-07-31T11:07:02;93715.25;;;27.87
62930;BMP280;49036;42.782;23.108;2023-07-31T11:09:31;93715.50;;;27.30
62930;BMP280;49036;42.782;23.108;2023-07-31T11:11:58;93706.28;;;29.17
62930;BMP280;49036;42.782;23.108;2023-07-31T11:14:24;93721.50;;;30.07
62930;BMP280;49036;42.782;23.108;2023-07-31T11:16:50;93713.47;;;31.00
62930;BMP280;49036;42.782;23.108;2023-07-31T11:19:25;93712.44;;;29.91
62930;BMP280;49036;42.782;23.108;2023-07-31T11:21:55;93706.09;;;29.29
62930;BMP280;49036;42.782;23.108;2023-07-31T11:24:22;93707.72;;;29.16
62930;BMP280;49036;42.782;23.108;2023-07-31T11:26:52;93706.09;;;29.84
62930;BMP280;49036;42.782;23.108;2023-07-31T11:29:20;93707.09;;;29.64
62930;BMP280;49036;42.782;23.108;2023-07-31T11:31:47;93700.13;;;30.02
62930;BMP280;49036;42.782;23.108;2023-07-31T11:36:19;93703.63;;;30.91
62930;BMP280;49036;42.782;23.108;2023-07-31T11:38:45;93694.78;;;30.66
62930;BMP280;49036;42.782;23.108;2023-07-31T11:41:13;93700.50;;;29.76
62930;BMP280;49036;42.782;23.108;2023-07-31T11:45:11;93691.59;;;30.00
62930;BMP280;49036;42.782;23.108;2023-07-31T11:47:37;93698.41;;;30.62
62930;BMP280;49036;42.782;23.108;2023-07-31T11:50:05;93693.19;;;31.47
62930;BMP280;49036;42.782;23.108;2023-07-31T11:52:38;93692.88;;;31.92
62930;BMP280;49036;42.782;23.108;2023-07-31T11:55:07;93686.63;;;32.70
62930;BMP280;49036;42.782;23.108;2023-07-31T11:57:36;93673.47;;;33.28
62930;BMP280;49036;42.782;23.108;2023-07-31T12:00:03;93674.63;;;32.88
62930;BMP280;49036;42.782;23.108;2023-07-31T12:02:29;93666.38;;;33.25
62930;BMP280;49036;42.782;23.108;2023-07-31T12:06:49;93665.00;;;32.98
62930;BMP280;49036;42.782;23.108;2023-07-31T12:09:15;93669.84;;;32.25
62930;BMP280;49036;42.782;23.108;2023-07-31T12:11:47;93662.59;;;31.68
62930;BMP280;49036;42.782;23.108;2023-07-31T12:14:26;93661.75;;;32.85
62930;BMP280;49036;42.782;23.108;2023-07-31T12:16:59;93668.50;;;32.49
62930;BMP280;49036;42.782;23.108;2023-07-31T12:19:25;93656.75;;;31.72
62930;BMP280;49036;42.782;23.108;2023-07-31T12:21:55;93652.78;;;31.88
62930;BMP280;49036;42.782;23.108;2023-07-31T12:24:21;93657.03;;;31.60
62930;BMP280;49036;42.782;23.108;2023-07-31T12:26:48;93656.88;;;30.64
62930;BMP280;49036;42.782;23.108;2023-07-31T12:29:14;93644.63;;;29.32
62930;BMP280;49036;42.782;23.108;2023-07-31T12:31:41;93650.13;;;29.48
62930;BMP280;49036;42.782;23.108;2023-07-31T12:34:18;93645.25;;;29.37
62930;BMP280;49036;42.782;23.108;2023-07-31T12:36:44;93647.81;;;28.32
62930;BMP280;49036;42.782;23.108;2023-07-31T12:39:09;93654.03;;;27.68
62930;BMP280;49036;42.782;23.108;2023-07-31T12:41:35;93651.94;;;28.52
62930;BMP280;49036;42.782;23.108;2023-07-31T12:44:01;93644.38;;;30.40
62930;BMP280;49036;42.782;23.108;2023-07-31T12:47:31;93639.38;;;31.78
62930;BMP280;49036;42.782;23.108;2023-07-31T12:49:57;93648.41;;;32.20
62930;BMP280;49036;42.782;23.108;2023-07-31T12:52:22;93655.84;;;32.09
62930;BMP280;49036;42.782;23.108;2023-07-31T12:54:48;93639.28;;;32.40
62930;BMP280;49036;42.782;23.108;2023-07-31T12:58:24;93633.44;;;32.96
62930;BMP280;49036;42.782;23.108;2023-07-31T13:02:45;93627.81;;;30.04
62930;BMP280;49036;42.782;23.108;2023-07-31T13:05:10;93632.44;;;28.74
62930;BMP280;49036;42.782;23.108;2023-07-31T13:07:36;93632.78;;;28.38
62930;BMP280;49036;42.782;23.108;2023-07-31T13:10:02;93641.84;;;27.81
62930;BMP280;49036;42.782;23.108;2023-07-31T13:12:27;93634.00;;;27.80
62930;BMP280;49036;42.782;23.108;2023-07-31T13:14:53;93617.13;;;28.37
62930;BMP280;49036;42.782;23.108;2023-07-31T13:17:19;93629.16;;;29.11
62930;BMP280;49036;42.782;23.108;2023-07-31T13:19:44;93625.28;;;31.35
62930;BMP280;49036;42.782;23.108;2023-07-31T13:22:10;93627.81;;;30.84
62930;BMP280;49036;42.782;23.108;2023-07-31T13:24:35;93634.03;;;29.20
62930;BMP280;49036;42.782;23.108;2023-07-31T13:27:01;93632.66;;;28.52
62930;BMP280;49036;42.782;23.108;2023-07-31T13:29:27;93626.03;;;29.33
62930;BMP280;49036;42.782;23.108;2023-07-31T13:31:52;93622.66;;;30.53
62930;BMP280;49036;42.782;23.108;2023-07-31T13:34:18;93625.28;;;30.66
62930;BMP280;49036;42.782;23.108;2023-07-31T13:36:44;93625.47;;;30.16
62930;BMP280;49036;42.782;23.108;2023-07-31T13:39:09;93622.28;;;30.35
62930;BMP280;49036;42.782;23.108;2023-07-31T13:41:35;93627.09;;;30.83
62930;BMP280;49036;42.782;23.108;2023-07-31T13:44:01;93618.09;;;29.87
62930;BMP280;49036;42.782;23.108;2023-07-31T13:46:26;93628.84;;;29.35
62930;BMP280;49036;42.782;23.108;2023-07-31T13:48:52;93625.75;;;29.51
62930;BMP280;49036;42.782;23.108;2023-07-31T13:51:21;93614.88;;;30.07
62930;BMP280;49036;42.782;23.108;2023-07-31T13:53:47;93617.72;;;30.87
62930;BMP280;49036;42.782;23.108;2023-07-31T13:56:13;93608.69;;;31.71
62930;BMP280;49036;42.782;23.108;2023-07-31T13:58:38;93619.03;;;30.55
62930;BMP280;49036;42.782;23.108;2023-07-31T14:01:04;93621.41;;;31.16
62930;BMP280;49036;42.782;23.108;2023-07-31T14:03:30;93630.53;;;31.25
62930;BMP280;49036;42.782;23.108;2023-07-31T14:05:56;93619.03;;;30.55
62930;BMP280;49036;42.782;23.108;2023-07-31T14:08:22;93614.00;;;30.16
62930;BMP280;49036;42.782;23.108;2023-07-31T14:10:47;93627.47;;;29.81
62930;BMP280;49036;42.782;23.108;2023-07-31T14:13:13;93621.59;;;29.42
62930;BMP280;49036;42.782;23.108;2023-07-31T14:15:41;93619.94;;;28.39
62930;BMP280;49036;42.782;23.108;2023-07-31T14:18:08;93613.69;;;28.22
62930;BMP280;49036;42.782;23.108;2023-07-31T14:20:33;93622.22;;;28.94
62930;BMP280;49036;42.782;23.108;2023-07-31T14:22:59;93620.25;;;28.80
62930;BMP280;49036;42.782;23.108;2023-07-31T14:25:25;93623.63;;;28.99
62930;BMP280;49036;42.782;23.108;2023-07-31T14:27:50;93621.56;;;29.91
62930;BMP280;49036;42.782;23.108;2023-07-31T14:30:16;93614.84;;;30.87
62930;BMP280;49036;42.782;23.108;2023-07-31T14:32:43;93621.63;;;31.06
62930;BMP280;49036;42.782;23.108;2023-07-31T14:35:09;93623.16;;;31.95
62930;BMP280;49036;42.782;23.108;2023-07-31T14:37:42;93619.78;;;31.87